Terminal Aerodrome Forecast
Issued by NWS

Home | Current Version | Previous Version | Text Only | Print | Product List | Glossary On
Versions: 1 2 3 4 5 6 7 8 9 10 11 12 13 14 15
000
FTUS41 KPBZ 310520
TAFAGC
TAF
KAGC 310520Z 3106/0106 35003KT P6SM SKC
      TEMPO 3109/3112 3SM BR=

USA.gov is the U.S. government's official web portal to all federal, state and local government web resources and services.